Time;durP1;ratioP1;P1;durP2;ratioP2;P2;SDS_P1;SDS_P2;PMS_P1;PMS_P2;Temp;Humidity;BMP_temperature;BMP_pressure;BME280_temperature;BME280_humidity;BME280_pressure;Samples;Min_cycle;Max_cycle;Signal;HPM_P1;HPM_P2
2023/08/23 00:01:08;;;;;;;12.50;11.50;;;;;;;26.50;48.99;95357.63;6077687;28;108969;-70
2023/08/23 00:04:25;;;;;;;12.68;11.57;;;;;;;26.56;48.56;95359.03;6083611;28;109878;-69
2023/08/23 00:07:28;;;;;;;12.40;11.30;;;;;;;26.55;48.52;95362.84;6087721;28;110011;-69
2023/08/23 00:10:31;;;;;;;12.50;11.50;;;;;;;26.53;48.71;95356.97;6088329;28;109727;-68
2023/08/23 00:13:35;;;;;;;12.60;11.50;;;;;;;26.73;47.65;95358.94;6069401;28;110148;-69
2023/08/23 00:16:38;;;;;;;11.47;10.47;;;;;;;26.93;47.11;95364.63;6088125;28;110029;-69
2023/08/23 00:19:41;;;;;;;12.20;11.10;;;;;;;26.99;47.19;95366.00;6087337;28;110190;-68
2023/08/23 00:22:45;;;;;;;12.43;11.30;;;;;;;26.94;47.31;95355.47;6080738;28;110786;-66
2023/08/23 00:25:48;;;;;;;11.90;10.90;;;;;;;26.91;47.29;95362.28;6080607;28;110188;-68
2023/08/23 00:28:52;;;;;;;12.60;11.60;;;;;;;27.02;47.57;95365.31;6087975;28;110325;-69
2023/08/23 00:31:55;;;;;;;11.88;10.77;;;;;;;27.01;47.03;95361.06;6087269;28;109896;-68
2023/08/23 00:34:58;;;;;;;11.63;10.70;;;;;;;27.10;47.21;95353.72;6073843;28;109898;-68
2023/08/23 00:38:01;;;;;;;12.10;11.20;;;;;;;27.16;47.43;95360.47;6087695;28;110048;-70
2023/08/23 00:41:05;;;;;;;12.32;11.30;;;;;;;27.16;47.38;95353.19;6088368;28;109581;-69
2023/08/23 00:44:09;;;;;;;11.30;10.40;;;;;;;27.16;46.72;95355.09;6086533;28;110225;-68
2023/08/23 00:47:12;;;;;;;12.00;11.00;;;;;;;27.16;46.81;95352.41;6077006;28;111597;-67
2023/08/23 00:50:16;;;;;;;11.70;10.80;;;;;;;27.16;46.81;95352.41;6086744;28;110417;-69
2023/08/23 00:53:20;;;;;;;11.57;10.77;;;;;;;27.17;47.01;95349.38;6085853;28;109817;-70
2023/08/23 00:56:24;;;;;;;11.32;10.40;;;;;;;27.13;46.56;95347.69;6085804;28;109945;-69
2023/08/23 00:59:30;;;;;;;11.50;10.40;;;;;;;27.17;46.14;95349.38;6075420;28;110202;-69
2023/08/23 01:02:35;;;;;;;11.18;10.20;;;;;;;27.06;45.97;95350.13;6084063;28;109781;-70
2023/08/23 01:05:49;;;;;;;11.07;10.18;;;;;;;27.09;45.96;95352.94;6086580;28;109976;-69
2023/08/23 01:09:03;;;;;;;11.00;10.10;;;;;;;27.07;46.19;95343.66;6077065;28;109719;-66
2023/08/23 01:12:14;;;;;;;10.98;10.00;;;;;;;27.07;45.64;95347.13;6085873;28;111219;-72
2023/08/23 01:15:21;;;;;;;10.80;9.90;;;;;;;26.97;46.00;95355.56;6081436;28;109957;-71
2023/08/23 01:18:25;;;;;;;10.40;9.60;;;;;;;27.02;45.86;95341.16;6087400;28;109951;-72
2023/08/23 01:21:33;;;;;;;10.47;9.57;;;;;;;27.01;45.74;95350.31;6073834;28;110908;-72
2023/08/23 01:24:38;;;;;;;10.40;9.60;;;;;;;27.05;45.08;95351.22;6086520;28;111035;-71
2023/08/23 01:27:41;;;;;;;10.33;9.60;;;;;;;27.04;45.98;95353.13;6086569;28;110287;-71
2023/08/23 01:31:01;;;;;;;10.30;9.60;;;;;;;27.04;45.29;95353.13;6080813;28;109884;-71
2023/08/23 01:34:10;;;;;;;11.07;10.07;;;;;;;27.02;45.13;95351.91;6078008;28;109899;-71
2023/08/23 01:37:14;;;;;;;10.60;9.70;;;;;;;27.04;45.36;95349.66;6086350;28;110151;-71
2023/08/23 01:40:19;;;;;;;10.20;9.40;;;;;;;27.01;45.63;95347.63;6084881;28;109810;-71
2023/08/23 01:43:23;;;;;;;11.02;10.23;;;;;;;27.02;45.88;95343.84;6072754;28;110107;-71
2023/08/23 01:46:26;;;;;;;11.00;10.05;;;;;;;26.96;45.42;95348.63;6086846;28;109861;-71
2023/08/23 01:49:29;;;;;;;10.50;9.70;;;;;;;26.89;45.67;95345.72;6085012;28;109965;-72
2023/08/23 01:52:32;;;;;;;11.05;10.05;;;;;;;26.90;46.19;95338.44;6085224;28;109826;-71
2023/08/23 01:55:37;;;;;;;10.30;9.50;;;;;;;26.71;46.08;95345.03;6075151;28;109940;-71
2023/08/23 01:58:40;;;;;;;9.80;9.10;;;;;;;26.69;45.88;95344.56;6086112;28;110833;-71
2023/08/23 02:01:43;;;;;;;10.82;9.82;;;;;;;26.63;45.82;95345.91;6082157;28;109831;-70
2023/08/23 02:04:46;;;;;;;10.35;9.45;;;;;;;26.73;46.16;95352.78;6085348;28;109847;-70
2023/08/23 02:07:49;;;;;;;10.75;9.85;;;;;;;26.59;46.34;95350.31;6075339;28;110747;-70
2023/08/23 02:10:53;;;;;;;10.23;9.32;;;;;;;26.65;45.69;95348.25;6086637;28;110939;-71
2023/08/23 02:13:56;;;;;;;10.00;9.30;;;;;;;26.76;45.96;95338.69;6085070;28;110521;-71
2023/08/23 02:17:00;;;;;;;10.83;9.83;;;;;;;26.79;45.83;95338.03;6077149;28;109926;-70
2023/08/23 02:20:03;;;;;;;10.80;9.90;;;;;;;26.85;45.69;95350.13;6082557;28;109888;-71
2023/08/23 02:23:06;;;;;;;10.20;9.40;;;;;;;26.84;45.88;95345.88;6084273;28;109925;-63
2023/08/23 02:26:10;;;;;;;10.20;9.47;;;;;;;26.84;45.62;95346.66;6085750;28;110207;-64
2023/08/23 02:29:13;;;;;;;11.02;10.23;;;;;;;26.87;46.10;95345.22;6075536;28;110264;-64
2023/08/23 02:32:16;;;;;;;11.20;10.27;;;;;;;26.79;46.03;95335.34;6088955;28;109997;-63
2023/08/23 02:35:19;;;;;;;10.57;9.80;;;;;;;26.86;45.43;95331.00;6089449;28;110258;-63
2023/08/23 02:38:23;;;;;;;10.83;10.03;;;;;;;26.84;45.89;95338.63;6090201;28;110061;-64
2023/08/23 02:41:27;;;;;;;10.67;9.87;;;;;;;26.80;45.81;95334.25;6078221;28;110795;-63
2023/08/23 02:44:30;;;;;;;11.82;10.93;;;;;;;26.81;45.14;95335.81;6089456;28;109789;-63
2023/08/23 02:47:33;;;;;;;13.30;12.23;;;;;;;26.86;45.45;95333.69;6090273;28;110287;-64
2023/08/23 02:50:37;;;;;;;16.67;15.38;;;;;;;26.89;45.39;95331.50;6069629;28;109923;-63
2023/08/23 02:53:40;;;;;;;25.87;23.87;;;;;;;26.89;45.69;95342.22;6081089;28;109861;-64
2023/08/23 02:56:44;;;;;;;18.50;17.10;;;;;;;26.86;45.27;95330.22;6089739;28;110342;-62
2023/08/23 02:59:48;;;;;;;15.00;13.80;;;;;;;26.90;45.56;95336.53;6089955;28;109782;-63
2023/08/23 03:02:51;;;;;;;14.27;13.17;;;;;;;26.91;45.31;95348.06;6078402;28;110956;-62
2023/08/23 03:05:56;;;;;;;21.13;19.63;;;;;;;26.91;45.66;95350.75;6088680;28;110143;-62
2023/08/23 03:08:59;;;;;;;17.67;16.27;;;;;;;26.91;45.19;95348.06;6089918;28;109965;-61
2023/08/23 03:12:04;;;;;;;21.60;19.90;;;;;;;26.91;45.65;95340.00;6089894;28;109978;-62
2023/08/23 03:15:08;;;;;;;18.38;16.98;;;;;;;26.97;45.49;95338.69;6070061;28;109981;-64
2023/08/23 03:18:11;;;;;;;19.53;18.00;;;;;;;27.01;45.59;95334.22;6080091;28;111052;-63
2023/08/23 03:21:14;;;;;;;16.00;14.70;;;;;;;26.89;46.43;95334.97;6088797;28;112104;-62
2023/08/23 03:24:17;;;;;;;21.20;19.30;;;;;;;26.75;46.53;95339.81;6086625;28;109804;-63
2023/08/23 03:27:24;;;;;;;41.05;37.95;;;;;;;26.46;46.60;95335.25;6079038;28;109911;-62
2023/08/23 03:30:28;;;;;;;23.88;22.00;;;;;;;26.32;46.57;95343.56;6088109;28;109920;-62
2023/08/23 03:33:31;;;;;;;15.75;14.45;;;;;;;26.14;47.14;95336.72;6088373;28;109885;-62
2023/08/23 03:36:34;;;;;;;14.40;13.20;;;;;;;25.92;47.50;95343.13;6081064;28;112780;-65
2023/08/23 03:39:38;;;;;;;14.27;13.07;;;;;;;25.81;48.20;95341.91;6086434;28;111017;-61
2023/08/23 03:42:42;;;;;;;14.25;13.05;;;;;;;26.04;47.31;95342.44;6086458;28;109889;-63
2023/08/23 03:45:48;;;;;;;14.83;13.70;;;;;;;26.42;46.75;95350.44;6086948;28;109829;-62
2023/08/23 03:48:52;;;;;;;15.00;13.60;;;;;;;26.57;46.67;95344.50;6077182;28;109698;-62
2023/08/23 03:51:55;;;;;;;14.68;13.18;;;;;;;26.71;46.94;95341.56;6084794;28;109972;-63
2023/08/23 03:54:58;;;;;;;14.27;12.88;;;;;;;26.76;46.06;95341.38;6081716;28;109835;-62
2023/08/23 03:58:02;;;;;;;13.57;12.32;;;;;;;26.80;46.35;95343.06;6087692;28;109513;-63
2023/08/23 04:01:05;;;;;;;13.18;11.98;;;;;;;26.84;46.59;95346.66;6071726;28;110427;-63
2023/08/23 04:04:08;;;;;;;15.93;12.43;;;;;;;26.83;46.68;95337.03;6083802;28;110390;-64
2023/08/23 04:07:16;;;;;;;15.90;12.57;;;;;;;26.89;47.67;95334.97;6075525;28;109751;-63
2023/08/23 04:10:19;;;;;;;14.07;12.57;;;;;;;26.98;47.02;95337.56;6079416;28;109732;-64
2023/08/23 04:13:24;;;;;;;14.00;12.55;;;;;;;27.08;47.39;95340.63;6076568;28;110339;-62
2023/08/23 04:16:27;;;;;;;14.52;12.27;;;;;;;27.09;47.26;95336.03;6085244;28;109922;-62
2023/08/23 04:19:30;;;;;;;13.63;12.07;;;;;;;27.04;47.26;95333.53;6087252;28;109692;-61
2023/08/23 04:22:33;;;;;;;14.10;12.48;;;;;;;26.93;47.33;95335.88;6075993;28;110245;-61
2023/08/23 04:25:37;;;;;;;13.13;11.93;;;;;;;26.85;47.23;95336.72;6087773;28;109977;-62
2023/08/23 04:28:41;;;;;;;14.38;12.88;;;;;;;26.72;47.74;95335.91;6088745;28;109974;-62
2023/08/23 04:31:44;;;;;;;14.10;12.80;;;;;;;26.71;47.26;95338.88;6088745;28;110009;-62
2023/08/23 04:34:47;;;;;;;14.50;13.30;;;;;;;26.68;47.99;95334.16;6077357;28;109909;-62
2023/08/23 04:37:51;;;;;;;14.77;13.37;;;;;;;26.63;47.85;95335.16;6088523;28;111092;-62
2023/08/23 04:40:59;;;;;;;14.90;13.40;;;;;;;26.65;47.57;95343.66;6088147;28;109943;-62
2023/08/23 04:44:04;;;;;;;14.38;12.80;;;;;;;26.68;47.46;95343.00;6086086;28;109932;-67
2023/08/23 04:47:07;;;;;;;14.52;13.15;;;;;;;26.68;47.48;95351.06;6082833;28;110920;-68
2023/08/23 04:50:10;;;;;;;17.45;15.90;;;;;;;26.65;47.16;95351.72;6088730;28;112598;-69
2023/08/23 04:53:13;;;;;;;28.70;26.40;;;;;;;26.52;47.95;95356.19;6088615;28;109941;-69
2023/08/23 04:56:17;;;;;;;23.60;21.30;;;;;;;26.60;48.07;95357.25;6078250;28;110236;-70
2023/08/23 04:59:21;;;;;;;20.15;18.35;;;;;;;26.66;47.70;95361.34;6088592;28;110713;-69
2023/08/23 05:02:24;;;;;;;19.10;17.35;;;;;;;26.68;47.91;95359.13;6088908;28;109763;-70
2023/08/23 05:05:27;;;;;;;18.20;16.60;;;;;;;26.58;48.00;95365.66;6089152;28;112644;-69
2023/08/23 05:08:34;;;;;;;16.75;14.93;;;;;;;26.41;48.10;95360.41;6078110;28;109786;-69
2023/08/23 05:11:37;;;;;;;18.00;16.23;;;;;;;26.46;47.80;95354.84;6085363;28;109810;-70
2023/08/23 05:14:42;;;;;;;17.70;16.20;;;;;;;26.55;47.86;95349.41;6081855;28;109722;-69
2023/08/23 05:17:45;;;;;;;28.27;25.90;;;;;;;26.57;47.48;95357.94;6088991;28;110214;-70
2023/08/23 05:20:53;;;;;;;57.17;52.78;;;;;;;26.56;47.93;95351.00;6077086;28;110009;-70
2023/08/23 05:23:57;;;;;;;51.55;47.63;;;;;;;26.67;47.34;95351.41;6088653;28;109938;-69
2023/08/23 05:27:00;;;;;;;33.00;30.50;;;;;;;26.73;46.89;95353.56;6087745;28;110279;-70
2023/08/23 05:30:05;;;;;;;24.70;22.80;;;;;;;26.76;46.98;95358.28;6082533;28;109967;-69
2023/08/23 05:33:08;;;;;;;21.90;20.00;;;;;;;26.76;46.99;95355.59;6081732;28;109984;-70
2023/08/23 05:36:12;;;;;;;20.40;18.80;;;;;;;26.74;46.94;95357.81;6088693;28;113139;-70
2023/08/23 05:39:15;;;;;;;19.00;17.60;;;;;;;26.73;47.56;95358.16;6088160;28;109763;-70
2023/08/23 05:42:19;;;;;;;20.35;18.65;;;;;;;26.78;47.31;95349.91;6078455;28;109861;-68
2023/08/23 05:45:26;;;;;;;21.23;19.43;;;;;;;26.87;46.60;95351.38;6087650;28;109609;-68
2023/08/23 05:48:34;;;;;;;21.90;20.10;;;;;;;27.03;46.87;95348.09;6088181;28;110728;-68
2023/08/23 05:51:38;;;;;;;20.23;18.80;;;;;;;27.15;46.06;95348.94;6087271;28;109667;-67
2023/08/23 05:54:41;;;;;;;20.42;18.67;;;;;;;27.26;46.05;95346.66;6076518;28;109955;-67
2023/08/23 05:57:44;;;;;;;20.98;19.48;;;;;;;27.35;46.07;95351.94;6086892;28;109951;-67
2023/08/23 06:00:51;;;;;;;22.35;20.73;;;;;;;27.43;46.04;95340.31;6087192;28;109771;-67
2023/08/23 06:03:54;;;;;;;22.15;20.55;;;;;;;27.56;45.69;95347.28;6084915;28;109838;-68
2023/08/23 06:06:58;;;;;;;21.17;19.40;;;;;;;27.66;45.68;95343.38;6085815;28;109840;-67
2023/08/23 06:10:01;;;;;;;22.38;20.58;;;;;;;27.70;45.17;95339.66;6091553;28;110141;-68
2023/08/23 06:13:04;;;;;;;22.20;20.50;;;;;;;27.77;45.83;95339.13;6091157;28;109820;-67
2023/08/23 06:16:09;;;;;;;20.33;18.88;;;;;;;27.87;45.11;95346.00;6080156;28;109788;-68
2023/08/23 06:19:12;;;;;;;21.13;19.52;;;;;;;27.89;45.72;95341.88;6091651;28;110219;-68
2023/08/23 06:22:15;;;;;;;20.77;19.27;;;;;;;27.97;44.77;95338.28;6091482;28;109633;-68
2023/08/23 06:25:18;;;;;;;20.48;18.77;;;;;;;28.05;45.42;95340.03;6083290;28;110295;-67
2023/08/23 06:28:22;;;;;;;20.65;19.05;;;;;;;28.13;44.79;95348.34;6080399;28;111201;-67
2023/08/23 06:31:26;;;;;;;19.40;17.90;;;;;;;28.22;44.66;95346.31;6091077;28;109773;-68
2023/08/23 06:34:29;;;;;;;18.77;17.17;;;;;;;28.26;44.43;95347.22;6091415;28;111203;-68
2023/08/23 06:37:32;;;;;;;18.90;17.30;;;;;;;28.32;44.60;95345.88;6090788;28;110182;-68
2023/08/23 06:40:35;;;;;;;18.02;16.52;;;;;;;28.35;45.01;95348.66;6081365;28;109943;-68
2023/08/23 06:43:39;;;;;;;18.77;17.27;;;;;;;28.45;44.24;95341.25;6090681;28;109830;-68
2023/08/23 06:46:43;;;;;;;17.90;16.50;;;;;;;28.50;44.14;95335.66;6090722;28;110008;-66
2023/08/23 06:49:46;;;;;;;18.30;16.70;;;;;;;28.53;44.31;95338.44;6080813;28;110137;-67
2023/08/23 06:52:49;;;;;;;16.88;15.57;;;;;;;28.58;44.21;95340.16;6090977;28;111483;-68
2023/08/23 06:55:52;;;;;;;17.55;16.15;;;;;;;28.63;44.19;95331.81;6091042;28;109469;-68
2023/08/23 06:58:55;;;;;;;16.50;15.20;;;;;;;28.70;44.29;95333.94;6090226;28;110979;-66
2023/08/23 07:02:00;;;;;;;16.50;15.20;;;;;;;28.74;43.80;95337.53;6080790;28;109745;-67
2023/08/23 07:05:03;;;;;;;16.80;15.30;;;;;;;28.81;43.64;95337.72;6091571;28;110006;-69
2023/08/23 07:08:07;;;;;;;16.93;15.53;;;;;;;28.85;43.99;95343.97;6075721;28;110215;-68
2023/08/23 07:11:10;;;;;;;16.13;14.73;;;;;;;28.83;43.83;95335.47;6090201;28;109978;-61
2023/08/23 07:14:13;;;;;;;15.98;14.45;;;;;;;28.59;44.22;95336.34;6080254;28;109800;-68
2023/08/23 07:17:18;;;;;;;15.30;14.05;;;;;;;28.77;44.02;95347.63;6090485;28;109835;-68
2023/08/23 07:20:21;;;;;;;15.55;14.35;;;;;;;28.86;44.24;95340.16;6090510;28;110291;-67
2023/08/23 07:23:24;;;;;;;15.35;14.15;;;;;;;28.96;43.82;95337.00;6086406;28;109543;-68
2023/08/23 07:26:27;;;;;;;15.60;14.40;;;;;;;29.03;43.86;95339.88;6084356;28;110175;-69
2023/08/23 07:29:31;;;;;;;15.55;14.15;;;;;;;29.10;43.88;95329.34;6090045;28;111094;-67
2023/08/23 07:32:35;;;;;;;15.50;14.20;;;;;;;29.17;43.44;95329.50;6090832;28;110358;-68
2023/08/23 07:35:38;;;;;;;15.65;14.25;;;;;;;29.17;43.49;95326.81;6079069;28;109758;-69
2023/08/23 07:38:41;;;;;;;15.68;14.48;;;;;;;29.21;43.07;95325.00;6090798;28;109955;-67
2023/08/23 07:41:45;;;;;;;15.50;14.30;;;;;;;29.22;43.63;95326.56;6089935;28;110405;-68
2023/08/23 07:44:48;;;;;;;15.53;14.30;;;;;;;29.26;43.21;95320.50;6089934;28;110172;-67
2023/08/23 07:47:52;;;;;;;15.53;14.33;;;;;;;29.27;43.12;95324.75;6079104;28;110064;-68
2023/08/23 07:50:57;;;;;;;15.80;14.40;;;;;;;29.31;43.32;95323.72;6090441;28;109746;-68
2023/08/23 07:54:00;;;;;;;15.90;14.60;;;;;;;29.31;43.50;95317.53;6089708;28;109956;-68
2023/08/23 07:57:03;;;;;;;15.07;13.88;;;;;;;29.35;43.47;95326.50;6089510;28;110865;-67
2023/08/23 08:00:09;;;;;;;15.20;14.00;;;;;;;29.39;42.83;95317.38;6079337;28;110074;-68
2023/08/23 08:03:14;;;;;;;15.80;14.50;;;;;;;29.39;43.13;95320.06;6089789;28;109718;-67
2023/08/23 08:06:17;;;;;;;14.75;13.65;;;;;;;29.45;43.34;95324.09;6089760;28;109898;-67
2023/08/23 08:09:21;;;;;;;16.05;14.70;;;;;;;29.45;42.89;95318.69;6080085;28;109772;-68
2023/08/23 08:12:24;;;;;;;16.10;14.80;;;;;;;29.52;43.08;95316.16;6089225;28;110313;-67
2023/08/23 08:15:27;;;;;;;16.53;15.30;;;;;;;29.54;42.89;95311.19;6089283;28;110034;-68
2023/08/23 08:18:32;;;;;;;16.38;15.07;;;;;;;29.56;43.25;95308.16;6089237;28;109745;-67
2023/08/23 08:21:36;;;;;;;17.30;15.90;;;;;;;29.59;42.76;95312.88;6078132;28;110170;-67
2023/08/23 08:24:39;;;;;;;16.90;15.60;;;;;;;29.63;42.93;95307.59;6089426;28;110274;-68
2023/08/23 08:27:42;;;;;;;16.90;15.50;;;;;;;29.64;42.95;95309.94;6088677;28;109782;-67
2023/08/23 08:30:46;;;;;;;16.38;15.18;;;;;;;29.69;42.77;95306.19;6088559;28;109697;-68
2023/08/23 08:33:51;;;;;;;17.70;16.30;;;;;;;29.71;42.76;95306.63;6078545;28;109813;-68
2023/08/23 08:36:54;;;;;;;16.90;15.60;;;;;;;29.73;43.15;95309.75;6089406;28;111068;-67
2023/08/23 08:39:57;;;;;;;17.80;16.30;;;;;;;29.75;42.45;95300.22;6089043;28;110104;-69
2023/08/23 08:43:01;;;;;;;17.17;15.85;;;;;;;29.78;42.60;95307.59;6083834;28;109864;-67
2023/08/23 08:46:06;;;;;;;17.27;15.98;;;;;;;29.85;42.64;95296.19;6078431;28;109897;-67
2023/08/23 08:49:11;;;;;;;17.10;15.80;;;;;;;29.83;42.84;95299.22;6089999;28;111903;-67
2023/08/23 08:52:18;;;;;;;16.98;15.68;;;;;;;29.83;42.57;95291.13;6088881;28;109958;-67
2023/08/23 08:55:22;;;;;;;16.77;15.47;;;;;;;29.85;43.16;95285.38;6078277;28;111654;-66
2023/08/23 08:58:27;;;;;;;16.80;15.60;;;;;;;29.89;42.95;95288.16;6088390;28;109825;-67
2023/08/23 09:01:35;;;;;;;16.30;15.05;;;;;;;29.92;42.30;95277.47;6088212;28;109944;-67
2023/08/23 09:04:40;;;;;;;17.40;16.03;;;;;;;29.90;42.55;95274.31;6088412;28;109832;-67
2023/08/23 09:07:43;;;;;;;18.08;16.67;;;;;;;29.88;42.41;95273.88;6078649;28;109807;-68
2023/08/23 09:10:46;;;;;;;17.20;15.90;;;;;;;29.92;42.26;95269.38;6088319;28;110219;-66
2023/08/23 09:13:50;;;;;;;16.80;15.60;;;;;;;29.97;42.19;95263.69;6089076;28;110032;-67
2023/08/23 09:16:53;;;;;;;17.40;16.10;;;;;;;29.93;42.39;95260.16;6083364;28;109538;-68
2023/08/23 09:19:59;;;;;;;15.93;14.83;;;;;;;29.96;42.30;95256.72;6081554;28;110269;-67
2023/08/23 09:23:02;;;;;;;16.90;15.60;;;;;;;29.96;42.04;95245.16;6089073;28;112651;-67
2023/08/23 09:26:06;;;;;;;16.40;15.20;;;;;;;29.95;42.01;95249.78;6088402;28;110020;-66
2023/08/23 09:29:09;;;;;;;15.90;14.60;;;;;;;30.01;41.54;95247.56;6077429;28;109928;-67
2023/08/23 09:32:13;;;;;;;15.10;14.10;;;;;;;30.08;41.04;95242.34;6087415;28;109764;-66
2023/08/23 09:35:18;;;;;;;14.57;13.48;;;;;;;30.09;40.67;95243.91;6088170;28;108580;-67
2023/08/23 09:38:22;;;;;;;14.70;13.50;;;;;;;30.12;40.59;95237.81;6088101;28;109978;-68
2023/08/23 09:41:25;;;;;;;14.00;12.85;;;;;;;30.01;40.97;95234.09;6077449;28;109905;-68
2023/08/23 09:44:30;;;;;;;13.88;12.88;;;;;;;30.03;40.34;95234.50;6088117;28;109850;-65
2023/08/23 09:47:34;;;;;;;14.18;13.07;;;;;;;30.04;40.46;95230.69;6087847;28;109775;-66
2023/08/23 09:50:39;;;;;;;14.15;13.15;;;;;;;30.01;40.72;95228.69;6088437;28;110355;-67
2023/08/23 09:53:48;;;;;;;13.10;12.00;;;;;;;30.08;40.07;95226.16;6079668;28;112100;-67
2023/08/23 09:56:52;;;;;;;12.52;11.63;;;;;;;30.09;39.24;95219.63;6088399;28;111577;-68
2023/08/23 09:59:55;;;;;;;12.47;11.40;;;;;;;30.04;39.23;95209.84;6087813;28;109939;-67
2023/08/23 10:02:58;;;;;;;12.00;11.10;;;;;;;29.95;39.36;95206.59;6076947;28;109942;-67
2023/08/23 10:06:03;;;;;;;12.70;11.80;;;;;;;29.84;39.33;95206.34;6087616;28;110945;-68
2023/08/23 10:09:08;;;;;;;12.20;11.23;;;;;;;29.77;39.20;95200.81;6087711;28;110948;-67
2023/08/23 10:12:13;;;;;;;11.83;11.03;;;;;;;29.70;39.47;95203.31;6087803;28;109913;-67
2023/08/23 10:15:19;;;;;;;12.90;11.70;;;;;;;29.71;39.73;95196.03;6076270;28;110024;-68
2023/08/23 10:18:25;;;;;;;12.77;11.77;;;;;;;29.70;39.90;95200.63;6087439;28;109914;-68
2023/08/23 10:21:30;;;;;;;12.60;11.60;;;;;;;29.72;39.72;95201.06;6087109;28;109918;-68
2023/08/23 10:24:33;;;;;;;12.30;11.43;;;;;;;29.74;40.11;95196.13;6088157;28;110014;-67
2023/08/23 10:27:37;;;;;;;12.50;11.60;;;;;;;29.69;40.00;95192.91;6077224;28;109873;-67
2023/08/23 10:30:44;;;;;;;12.55;11.65;;;;;;;29.69;39.58;95195.59;6086798;28;109821;-67
2023/08/23 10:33:54;;;;;;;12.60;11.70;;;;;;;29.64;40.03;95188.56;6086803;28;110308;-67
2023/08/23 10:37:02;;;;;;;12.10;11.20;;;;;;;29.60;40.50;95187.66;6077001;28;109739;-68
2023/08/23 10:40:09;;;;;;;13.30;12.30;;;;;;;29.54;40.45;95180.97;6087144;28;109767;-68
2023/08/23 10:43:15;;;;;;;13.53;12.53;;;;;;;29.48;40.78;95193.16;6087290;28;111022;-66
2023/08/23 10:46:19;;;;;;;13.13;12.13;;;;;;;29.49;40.42;95189.34;6087240;28;110020;-67
2023/08/23 10:49:25;;;;;;;12.90;11.80;;;;;;;29.50;40.37;95183.59;6078602;28;110429;-68
2023/08/23 10:52:30;;;;;;;13.60;12.50;;;;;;;29.50;40.26;95172.78;6091646;28;110188;-68
2023/08/23 10:55:33;;;;;;;12.63;11.70;;;;;;;29.49;40.45;95168.53;6091351;28;109973;-69
2023/08/23 10:58:36;;;;;;;12.80;11.70;;;;;;;29.52;40.39;95173.22;6090865;28;109765;-69
2023/08/23 11:01:42;;;;;;;13.55;12.45;;;;;;;29.48;40.29;95176.97;6064950;28;109926;-69
2023/08/23 11:04:47;;;;;;;12.70;11.68;;;;;;;29.46;40.44;95179.25;6090478;28;112662;-70
2023/08/23 11:07:52;;;;;;;11.90;11.00;;;;;;;29.45;40.10;95177.69;6090763;28;110328;-67
2023/08/23 11:10:55;;;;;;;12.70;11.80;;;;;;;29.37;40.73;95181.34;6084238;28;109870;-68
2023/08/23 11:13:58;;;;;;;13.18;11.88;;;;;;;29.37;40.34;95181.34;6088020;28;110001;-68
2023/08/23 11:17:04;;;;;;;12.57;11.50;;;;;;;29.33;40.57;95178.56;6090424;28;109991;-68
2023/08/23 11:20:10;;;;;;;12.70;11.60;;;;;;;29.33;40.54;95170.47;6089815;28;109766;-69
2023/08/23 11:23:14;;;;;;;12.32;11.23;;;;;;;29.32;40.72;95168.13;6079947;28;109803;-68
2023/08/23 11:26:18;;;;;;;11.53;10.63;;;;;;;29.29;40.59;95166.13;6091024;28;109668;-68
2023/08/23 11:29:22;;;;;;;11.93;10.93;;;;;;;29.27;40.72;95161.09;6090494;28;110155;-68
2023/08/23 11:32:26;;;;;;;11.00;10.10;;;;;;;29.26;40.53;95161.44;6090596;28;109934;-67
2023/08/23 11:35:30;;;;;;;12.13;11.03;;;;;;;29.29;40.39;95158.03;6079094;28;110054;-67
2023/08/23 11:38:35;;;;;;;11.63;10.73;;;;;;;29.27;40.63;95155.69;6090607;28;109943;-66
2023/08/23 11:41:38;;;;;;;11.60;10.60;;;;;;;29.24;40.41;95154.50;6089685;28;109827;-66
2023/08/23 11:44:41;;;;;;;11.20;10.30;;;;;;;29.28;40.66;95156.47;6084750;28;109970;-67
2023/08/23 11:47:45;;;;;;;11.10;10.20;;;;;;;29.26;40.36;95156.06;6084039;28;110846;-67
2023/08/23 11:50:50;;;;;;;10.98;10.18;;;;;;;29.29;40.34;95169.59;6090411;28;109715;-66
2023/08/23 11:53:55;;;;;;;11.05;10.25;;;;;;;29.30;40.50;95176.56;6089746;28;109978;-66
2023/08/23 11:57:00;;;;;;;10.63;9.90;;;;;;;29.33;40.04;95175.09;6079415;28;109952;-66
2023/08/23 12:00:06;;;;;;;10.80;9.80;;;;;;;29.32;39.67;95179.69;6073470;28;110964;-67
2023/08/23 12:03:10;;;;;;;10.30;9.50;;;;;;;29.31;40.17;95171.97;6089701;28;109786;-67
2023/08/23 12:06:13;;;;;;;10.02;9.32;;;;;;;29.30;39.86;95171.19;6089666;28;111095;-68
2023/08/23 12:09:19;;;;;;;9.68;8.88;;;;;;;29.27;39.79;95171.09;6072871;28;110394;-66
2023/08/23 12:12:22;;;;;;;10.63;9.73;;;;;;;29.26;40.42;95164.13;6090241;28;110048;-68
2023/08/23 12:15:25;;;;;;;10.30;9.40;;;;;;;29.24;39.84;95159.88;6089337;28;109776;-68
2023/08/23 12:18:29;;;;;;;9.95;9.25;;;;;;;29.22;39.95;95156.72;6086211;28;109902;-68
2023/08/23 12:21:32;;;;;;;10.02;9.13;;;;;;;29.21;40.10;95155.16;6084124;28;110266;-67
2023/08/23 12:24:36;;;;;;;10.20;9.40;;;;;;;29.23;40.27;95152.13;6089903;28;111662;-67
2023/08/23 12:27:42;;;;;;;9.60;8.80;;;;;;;29.24;39.66;95145.63;6088983;28;128946;-67
2023/08/23 12:30:45;;;;;;;10.10;9.20;;;;;;;29.22;39.56;95143.25;6078364;28;109945;-67
2023/08/23 12:33:48;;;;;;;10.00;9.20;;;;;;;29.21;40.00;95136.28;6089089;28;109869;-67
2023/08/23 12:36:52;;;;;;;10.13;9.23;;;;;;;29.22;39.78;95132.47;6088569;28;108701;-69
2023/08/23 12:39:57;;;;;;;10.10;9.30;;;;;;;29.26;39.70;95131.78;6089245;28;109807;-69
2023/08/23 12:43:00;;;;;;;10.60;9.63;;;;;;;29.23;39.33;95131.38;6079985;28;109790;-69
2023/08/23 12:46:03;;;;;;;10.00;9.10;;;;;;;29.22;39.67;95126.28;6088659;28;109693;-68
2023/08/23 12:49:12;;;;;;;9.60;8.70;;;;;;;29.21;40.03;95140.91;6088967;28;109740;-68
2023/08/23 12:52:15;;;;;;;10.20;9.30;;;;;;;29.21;39.69;95140.91;6089560;28;111343;-69
2023/08/23 12:55:19;;;;;;;9.88;9.02;;;;;;;29.22;39.79;95137.84;6077951;28;109406;-68
2023/08/23 12:58:23;;;;;;;9.82;9.02;;;;;;;29.20;39.73;95136.66;6089205;28;109895;-68
2023/08/23 13:01:26;;;;;;;10.27;9.38;;;;;;;29.19;39.59;95119.69;6088749;28;111016;-68
2023/08/23 13:04:29;;;;;;;9.57;8.77;;;;;;;29.19;39.83;95122.38;6082145;28;109870;-68
2023/08/23 13:07:32;;;;;;;9.30;8.60;;;;;;;29.17;39.76;95124.66;6084846;28;109716;-68
2023/08/23 13:10:38;;;;;;;9.23;8.50;;;;;;;29.17;39.95;95121.97;6088903;28;110011;-66
2023/08/23 13:13:41;;;;;;;9.35;8.65;;;;;;;29.16;39.68;95115.00;6088025;28;109979;-68
2023/08/23 13:16:44;;;;;;;9.95;9.20;;;;;;;29.16;39.83;95120.41;6077805;28;109863;-69
2023/08/23 13:19:48;;;;;;;10.45;9.55;;;;;;;29.15;40.09;95121.53;6087877;28;109545;-69
2023/08/23 13:22:51;;;;;;;9.52;8.82;;;;;;;29.15;40.19;95110.75;6088257;28;109957;-68
2023/08/23 13:25:55;;;;;;;9.73;8.93;;;;;;;29.11;40.22;95109.91;6088204;28;110037;-68
2023/08/23 13:29:00;;;;;;;9.47;8.70;;;;;;;29.13;40.06;95104.94;6077666;28;110323;-68
2023/08/23 13:32:03;;;;;;;9.60;8.80;;;;;;;29.13;39.83;95110.31;6088339;28;110418;-69
2023/08/23 13:35:23;;;;;;;10.00;9.20;;;;;;;29.14;39.98;95109.19;6088111;28;109787;-68
2023/08/23 13:38:26;;;;;;;10.13;9.33;;;;;;;29.14;39.91;95113.78;6082127;28;110051;-68
2023/08/23 13:41:31;;;;;;;9.85;9.05;;;;;;;29.13;40.28;95113.00;6082286;28;110108;-67
2023/08/23 13:44:34;;;;;;;9.98;9.10;;;;;;;29.13;39.94;95104.94;6088068;28;109759;-68
2023/08/23 13:47:37;;;;;;;10.30;9.50;;;;;;;29.15;40.20;95097.28;6088316;28;109855;-69
2023/08/23 13:50:41;;;;;;;9.55;8.75;;;;;;;29.14;40.13;95097.63;6077079;28;109755;-69
2023/08/23 13:53:45;;;;;;;10.07;9.07;;;;;;;29.14;39.51;95095.72;6087891;28;110349;-68
2023/08/23 13:56:50;;;;;;;9.50;8.70;;;;;;;29.13;39.39;95096.84;6087851;28;111231;-67
2023/08/23 13:59:53;;;;;;;10.35;9.45;;;;;;;29.13;39.61;95094.16;6088030;28;109812;-68